sensor_id;sensor_type;location;lat;lon;timestamp;P1;durP1;ratioP1;P2;durP2;ratioP2
21356;SDS011;10836;53.068;18.234;2023-02-15T11:53:41;75.67;;;45.97;;
21356;SDS011;10836;53.068;18.234;2023-02-15T11:56:13;76.00;;;44.40;;
21356;SDS011;10836;53.068;18.234;2023-02-15T12:01:22;81.53;;;45.80;;
21356;SDS011;10836;53.068;18.234;2023-02-15T12:04:10;79.77;;;43.87;;
21356;SDS011;10836;53.068;18.234;2023-02-15T12:09:41;85.63;;;44.03;;
21356;SDS011;10836;53.068;18.234;2023-02-15T12:12:38;80.93;;;44.43;;
21356;SDS011;10836;53.068;18.234;2023-02-15T12:15:06;78.90;;;44.13;;
21356;SDS011;10836;53.068;18.234;2023-02-15T12:17:38;84.57;;;46.10;;
21356;SDS011;10836;53.068;18.234;2023-02-15T12:20:20;78.43;;;44.83;;
21356;SDS011;10836;53.068;18.234;2023-02-15T12:22:58;77.90;;;43.43;;
21356;SDS011;10836;53.068;18.234;2023-02-15T12:31:22;88.10;;;44.60;;
21356;SDS011;10836;53.068;18.234;2023-02-15T12:33:54;91.80;;;47.60;;
21356;SDS011;10836;53.068;18.234;2023-02-15T12:36:25;93.60;;;48.00;;
21356;SDS011;10836;53.068;18.234;2023-02-15T12:39:02;87.47;;;47.33;;
21356;SDS011;10836;53.068;18.234;2023-02-15T12:41:29;90.23;;;48.00;;
21356;SDS011;10836;53.068;18.234;2023-02-15T12:44:02;89.97;;;47.50;;
21356;SDS011;10836;53.068;18.234;2023-02-15T12:46:29;95.97;;;48.43;;
21356;SDS011;10836;53.068;18.234;2023-02-15T12:49:11;93.27;;;50.87;;
21356;SDS011;10836;53.068;18.234;2023-02-15T12:51:47;97.30;;;51.70;;
21356;SDS011;10836;53.068;18.234;2023-02-15T12:54:22;94.53;;;48.13;;
21356;SDS011;10836;53.068;18.234;2023-02-15T12:56:58;81.67;;;45.07;;
21356;SDS011;10836;53.068;18.234;2023-02-15T12:59:25;88.00;;;46.60;;
21356;SDS011;10836;53.068;18.234;2023-02-15T13:01:52;88.10;;;45.40;;
21356;SDS011;10836;53.068;18.234;2023-02-15T13:04:21;94.87;;;49.87;;
21356;SDS011;10836;53.068;18.234;2023-02-15T13:06:52;90.10;;;48.07;;
21356;SDS011;10836;53.068;18.234;2023-02-15T13:09:33;85.83;;;46.83;;
21356;SDS011;10836;53.068;18.234;2023-02-15T13:12:14;90.40;;;46.37;;
21356;SDS011;10836;53.068;18.234;2023-02-15T13:14:45;92.37;;;46.90;;
21356;SDS011;10836;53.068;18.234;2023-02-15T13:17:17;92.50;;;47.43;;
21356;SDS011;10836;53.068;18.234;2023-02-15T13:19:49;92.27;;;48.57;;
21356;SDS011;10836;53.068;18.234;2023-02-15T13:22:28;89.97;;;44.97;;
21356;SDS011;10836;53.068;18.234;2023-02-15T13:25:09;94.80;;;48.13;;
21356;SDS011;10836;53.068;18.234;2023-02-15T13:27:41;96.17;;;47.83;;
21356;SDS011;10836;53.068;18.234;2023-02-15T13:30:13;87.17;;;48.17;;
21356;SDS011;10836;53.068;18.234;2023-02-15T13:32:50;90.50;;;47.83;;
21356;SDS011;10836;53.068;18.234;2023-02-15T13:35:21;94.20;;;48.50;;
21356;SDS011;10836;53.068;18.234;2023-02-15T13:38:01;95.83;;;49.00;;
21356;SDS011;10836;53.068;18.234;2023-02-15T13:40:51;92.07;;;47.40;;
21356;SDS011;10836;53.068;18.234;2023-02-15T13:43:31;89.47;;;47.97;;
21356;SDS011;10836;53.068;18.234;2023-02-15T13:51:45;83.83;;;46.80;;
21356;SDS011;10836;53.068;18.234;2023-02-15T14:08:51;92.20;;;48.83;;
21356;SDS011;10836;53.068;18.234;2023-02-15T14:11:44;93.13;;;49.00;;
21356;SDS011;10836;53.068;18.234;2023-02-15T14:19:52;94.47;;;48.57;;
21356;SDS011;10836;53.068;18.234;2023-02-15T14:27:56;96.17;;;49.80;;
21356;SDS011;10836;53.068;18.234;2023-02-15T14:30:33;98.57;;;51.97;;
21356;SDS011;10836;53.068;18.234;2023-02-15T14:33:47;100.77;;;51.77;;
21356;SDS011;10836;53.068;18.234;2023-02-15T14:36:07;99.80;;;50.77;;
21356;SDS011;10836;53.068;18.234;2023-02-15T14:43:54;108.93;;;51.10;;
21356;SDS011;10836;53.068;18.234;2023-02-15T14:46:35;110.23;;;52.03;;
21356;SDS011;10836;53.068;18.234;2023-02-15T14:49:23;95.17;;;49.73;;
21356;SDS011;10836;53.068;18.234;2023-02-15T14:51:53;97.07;;;48.43;;
21356;SDS011;10836;53.068;18.234;2023-02-15T15:02:10;96.30;;;49.63;;
21356;SDS011;10836;53.068;18.234;2023-02-15T15:04:56;92.37;;;48.17;;
21356;SDS011;10836;53.068;18.234;2023-02-15T15:12:45;95.50;;;49.97;;
21356;SDS011;10836;53.068;18.234;2023-02-15T15:25:47;88.20;;;45.50;;
21356;SDS011;10836;53.068;18.234;2023-02-15T15:37:16;90.13;;;46.83;;
21356;SDS011;10836;53.068;18.234;2023-02-15T15:46:00;91.23;;;47.50;;
21356;SDS011;10836;53.068;18.234;2023-02-15T15:48:35;89.83;;;47.53;;
21356;SDS011;10836;53.068;18.234;2023-02-15T15:53:40;85.90;;;45.93;;
21356;SDS011;10836;53.068;18.234;2023-02-15T15:56:12;92.20;;;45.50;;
21356;SDS011;10836;53.068;18.234;2023-02-15T15:58:44;84.80;;;45.00;;
21356;SDS011;10836;53.068;18.234;2023-02-15T16:01:23;82.00;;;44.50;;
21356;SDS011;10836;53.068;18.234;2023-02-15T16:03:53;93.53;;;45.87;;
21356;SDS011;10836;53.068;18.234;2023-02-15T16:06:41;85.27;;;44.87;;
21356;SDS011;10836;53.068;18.234;2023-02-15T16:09:11;88.77;;;46.00;;
21356;SDS011;10836;53.068;18.234;2023-02-15T16:11:47;89.80;;;44.07;;
21356;SDS011;10836;53.068;18.234;2023-02-15T16:14:30;87.57;;;45.37;;
21356;SDS011;10836;53.068;18.234;2023-02-15T16:17:00;95.23;;;46.73;;
21356;SDS011;10836;53.068;18.234;2023-02-15T16:19:32;91.37;;;45.33;;
21356;SDS011;10836;53.068;18.234;2023-02-15T16:22:02;89.73;;;46.13;;
21356;SDS011;10836;53.068;18.234;2023-02-15T16:35:38;93.03;;;47.13;;
21356;SDS011;10836;53.068;18.234;2023-02-15T16:38:10;94.80;;;45.93;;
21356;SDS011;10836;53.068;18.234;2023-02-15T16:43:14;95.57;;;47.17;;
21356;SDS011;10836;53.068;18.234;2023-02-15T16:45:44;96.63;;;47.47;;
21356;SDS011;10836;53.068;18.234;2023-02-15T16:48:14;93.67;;;45.97;;
21356;SDS011;10836;53.068;18.234;2023-02-15T16:50:47;99.57;;;47.90;;
21356;SDS011;10836;53.068;18.234;2023-02-15T16:53:21;102.13;;;49.17;;
21356;SDS011;10836;53.068;18.234;2023-02-15T16:55:53;107.07;;;48.97;;
21356;SDS011;10836;53.068;18.234;2023-02-15T16:58:41;103.83;;;49.53;;
21356;SDS011;10836;53.068;18.234;2023-02-15T17:01:11;106.73;;;48.57;;
21356;SDS011;10836;53.068;18.234;2023-02-15T17:03:41;110.10;;;49.23;;
21356;SDS011;10836;53.068;18.234;2023-02-15T17:06:18;131.10;;;56.77;;
21356;SDS011;10836;53.068;18.234;2023-02-15T17:08:52;125.80;;;55.43;;
21356;SDS011;10836;53.068;18.234;2023-02-15T17:11:34;109.83;;;49.97;;
21356;SDS011;10836;53.068;18.234;2023-02-15T17:16:42;116.67;;;51.80;;
21356;SDS011;10836;53.068;18.234;2023-02-15T17:19:32;109.00;;;52.40;;
21356;SDS011;10836;53.068;18.234;2023-02-15T17:22:20;102.80;;;47.90;;
21356;SDS011;10836;53.068;18.234;2023-02-15T17:24:50;110.37;;;50.23;;
21356;SDS011;10836;53.068;18.234;2023-02-15T17:27:25;111.67;;;49.43;;
21356;SDS011;10836;53.068;18.234;2023-02-15T17:29:59;101.90;;;48.90;;
21356;SDS011;10836;53.068;18.234;2023-02-15T17:32:30;103.50;;;50.20;;
21356;SDS011;10836;53.068;18.234;2023-02-15T17:35:05;100.93;;;46.23;;
21356;SDS011;10836;53.068;18.234;2023-02-15T17:40:20;107.37;;;50.10;;
21356;SDS011;10836;53.068;18.234;2023-02-15T17:42:51;108.33;;;49.60;;
21356;SDS011;10836;53.068;18.234;2023-02-15T17:45:19;113.67;;;51.30;;
21356;SDS011;10836;53.068;18.234;2023-02-15T17:47:48;111.83;;;50.67;;
21356;SDS011;10836;53.068;18.234;2023-02-15T17:50:22;111.30;;;49.97;;
21356;SDS011;10836;53.068;18.234;2023-02-15T17:52:51;109.47;;;51.53;;
21356;SDS011;10836;53.068;18.234;2023-02-15T17:55:20;109.23;;;50.30;;
21356;SDS011;10836;53.068;18.234;2023-02-15T17:58:01;120.73;;;52.73;;
21356;SDS011;10836;53.068;18.234;2023-02-15T18:00:30;117.73;;;52.87;;
21356;SDS011;10836;53.068;18.234;2023-02-15T18:03:16;115.23;;;52.33;;
21356;SDS011;10836;53.068;18.234;2023-02-15T18:06:02;111.33;;;51.30;;
21356;SDS011;10836;53.068;18.234;2023-02-15T18:08:48;120.70;;;52.70;;
21356;SDS011;10836;53.068;18.234;2023-02-15T18:11:36;121.77;;;54.17;;
21356;SDS011;10836;53.068;18.234;2023-02-15T18:14:07;119.10;;;55.83;;
21356;SDS011;10836;53.068;18.234;2023-02-15T18:16:37;120.27;;;54.63;;
21356;SDS011;10836;53.068;18.234;2023-02-15T18:19:09;125.80;;;53.97;;
21356;SDS011;10836;53.068;18.234;2023-02-15T18:21:40;118.47;;;53.50;;
21356;SDS011;10836;53.068;18.234;2023-02-15T18:24:17;126.37;;;55.73;;
21356;SDS011;10836;53.068;18.234;2023-02-15T18:26:46;122.67;;;55.30;;
21356;SDS011;10836;53.068;18.234;2023-02-15T18:29:14;116.83;;;51.47;;
21356;SDS011;10836;53.068;18.234;2023-02-15T18:31:41;117.07;;;51.57;;
21356;SDS011;10836;53.068;18.234;2023-02-15T18:34:19;117.33;;;55.00;;
21356;SDS011;10836;53.068;18.234;2023-02-15T18:36:53;120.40;;;52.00;;
21356;SDS011;10836;53.068;18.234;2023-02-15T18:39:25;110.10;;;50.07;;
21356;SDS011;10836;53.068;18.234;2023-02-15T18:41:59;114.90;;;51.57;;
21356;SDS011;10836;53.068;18.234;2023-02-15T18:44:26;122.30;;;51.73;;
21356;SDS011;10836;53.068;18.234;2023-02-15T18:46:53;115.37;;;52.90;;
21356;SDS011;10836;53.068;18.234;2023-02-15T18:49:20;120.90;;;54.07;;
21356;SDS011;10836;53.068;18.234;2023-02-15T18:51:47;109.13;;;50.10;;
21356;SDS011;10836;53.068;18.234;2023-02-15T18:54:18;104.23;;;49.83;;
21356;SDS011;10836;53.068;18.234;2023-02-15T18:56:51;109.13;;;51.43;;
21356;SDS011;10836;53.068;18.234;2023-02-15T18:59:21;114.57;;;51.97;;
21356;SDS011;10836;53.068;18.234;2023-02-15T19:01:50;109.43;;;50.17;;
21356;SDS011;10836;53.068;18.234;2023-02-15T19:04:17;119.90;;;55.27;;
21356;SDS011;10836;53.068;18.234;2023-02-15T19:06:45;103.47;;;50.30;;
21356;SDS011;10836;53.068;18.234;2023-02-15T19:09:20;110.43;;;49.83;;
21356;SDS011;10836;53.068;18.234;2023-02-15T19:11:50;116.00;;;50.80;;
21356;SDS011;10836;53.068;18.234;2023-02-15T19:14:21;116.57;;;53.13;;
21356;SDS011;10836;53.068;18.234;2023-02-15T19:16:57;112.33;;;50.60;;
21356;SDS011;10836;53.068;18.234;2023-02-15T19:19:26;128.67;;;55.80;;
21356;SDS011;10836;53.068;18.234;2023-02-15T19:21:53;145.93;;;63.50;;
21356;SDS011;10836;53.068;18.234;2023-02-15T19:24:21;156.07;;;65.07;;
21356;SDS011;10836;53.068;18.234;2023-02-15T19:26:51;161.87;;;66.27;;
21356;SDS011;10836;53.068;18.234;2023-02-15T19:29:20;163.30;;;67.10;;
21356;SDS011;10836;53.068;18.234;2023-02-15T19:31:52;158.90;;;64.90;;
21356;SDS011;10836;53.068;18.234;2023-02-15T19:34:19;148.10;;;60.03;;
21356;SDS011;10836;53.068;18.234;2023-02-15T19:36:46;142.87;;;58.77;;
21356;SDS011;10836;53.068;18.234;2023-02-15T19:39:22;134.33;;;54.87;;
21356;SDS011;10836;53.068;18.234;2023-02-15T19:41:53;143.40;;;57.97;;
21356;SDS011;10836;53.068;18.234;2023-02-15T19:44:20;130.57;;;54.10;;
21356;SDS011;10836;53.068;18.234;2023-02-15T19:46:47;127.30;;;54.03;;
21356;SDS011;10836;53.068;18.234;2023-02-15T19:49:14;132.93;;;58.20;;
21356;SDS011;10836;53.068;18.234;2023-02-15T19:51:42;148.07;;;62.03;;
21356;SDS011;10836;53.068;18.234;2023-02-15T19:54:15;134.27;;;56.77;;
21356;SDS011;10836;53.068;18.234;2023-02-15T19:56:46;138.13;;;59.97;;
21356;SDS011;10836;53.068;18.234;2023-02-15T19:59:26;140.57;;;60.40;;
21356;SDS011;10836;53.068;18.234;2023-02-15T20:01:54;188.53;;;76.60;;
21356;SDS011;10836;53.068;18.234;2023-02-15T20:04:22;219.73;;;87.33;;
21356;SDS011;10836;53.068;18.234;2023-02-15T20:06:50;212.57;;;86.03;;
21356;SDS011;10836;53.068;18.234;2023-02-15T20:09:19;206.70;;;85.67;;
21356;SDS011;10836;53.068;18.234;2023-02-15T20:11:51;232.53;;;94.57;;
21356;SDS011;10836;53.068;18.234;2023-02-15T20:14:19;211.93;;;82.53;;
21356;SDS011;10836;53.068;18.234;2023-02-15T20:16:46;197.83;;;79.10;;
21356;SDS011;10836;53.068;18.234;2023-02-15T20:19:13;202.93;;;82.80;;
21356;SDS011;10836;53.068;18.234;2023-02-15T20:21:41;183.00;;;72.50;;
21356;SDS011;10836;53.068;18.234;2023-02-15T20:24:12;187.37;;;72.80;;
21356;SDS011;10836;53.068;18.234;2023-02-15T20:26:45;177.43;;;70.30;;
21356;SDS011;10836;53.068;18.234;2023-02-15T20:29:13;162.00;;;62.43;;
21356;SDS011;10836;53.068;18.234;2023-02-15T20:31:41;154.60;;;62.77;;
21356;SDS011;10836;53.068;18.234;2023-02-15T20:34:09;150.70;;;60.73;;
21356;SDS011;10836;53.068;18.234;2023-02-15T20:36:37;152.83;;;61.70;;
21356;SDS011;10836;53.068;18.234;2023-02-15T20:39:12;162.50;;;65.37;;
21356;SDS011;10836;53.068;18.234;2023-02-15T20:41:42;159.53;;;65.63;;
21356;SDS011;10836;53.068;18.234;2023-02-15T20:44:25;158.93;;;68.23;;
21356;SDS011;10836;53.068;18.234;2023-02-15T20:46:55;187.73;;;78.43;;
21356;SDS011;10836;53.068;18.234;2023-02-15T20:49:24;188.50;;;77.50;;
21356;SDS011;10836;53.068;18.234;2023-02-15T20:51:53;178.97;;;76.10;;
21356;SDS011;10836;53.068;18.234;2023-02-15T20:54:22;189.10;;;77.43;;
21356;SDS011;10836;53.068;18.234;2023-02-15T20:56:51;176.53;;;72.97;;
21356;SDS011;10836;53.068;18.234;2023-02-15T20:59:24;168.67;;;69.87;;
21356;SDS011;10836;53.068;18.234;2023-02-15T21:02:18;160.90;;;61.23;;
21356;SDS011;10836;53.068;18.234;2023-02-15T21:04:48;139.27;;;57.33;;
21356;SDS011;10836;53.068;18.234;2023-02-15T21:07:16;133.90;;;57.17;;
21356;SDS011;10836;53.068;18.234;2023-02-15T21:09:45;131.13;;;53.20;;
21356;SDS011;10836;53.068;18.234;2023-02-15T21:12:14;133.47;;;54.00;;
21356;SDS011;10836;53.068;18.234;2023-02-15T21:14:43;133.37;;;54.17;;
21356;SDS011;10836;53.068;18.234;2023-02-15T21:17:11;138.33;;;53.87;;
21356;SDS011;10836;53.068;18.234;2023-02-15T21:19:40;150.30;;;60.60;;
21356;SDS011;10836;53.068;18.234;2023-02-15T21:22:13;140.83;;;55.43;;
21356;SDS011;10836;53.068;18.234;2023-02-15T21:24:43;165.30;;;65.53;;
21356;SDS011;10836;53.068;18.234;2023-02-15T21:27:16;247.93;;;93.77;;
21356;SDS011;10836;53.068;18.234;2023-02-15T21:29:44;217.40;;;83.70;;
21356;SDS011;10836;53.068;18.234;2023-02-15T21:32:11;195.20;;;76.03;;
21356;SDS011;10836;53.068;18.234;2023-02-15T21:34:38;221.07;;;80.80;;
21356;SDS011;10836;53.068;18.234;2023-02-15T21:37:13;180.37;;;72.27;;
21356;SDS011;10836;53.068;18.234;2023-02-15T21:39:53;178.93;;;69.80;;
21356;SDS011;10836;53.068;18.234;2023-02-15T21:42:20;180.83;;;70.47;;
21356;SDS011;10836;53.068;18.234;2023-02-15T21:45:12;195.77;;;76.60;;
21356;SDS011;10836;53.068;18.234;2023-02-15T21:48:02;226.83;;;83.03;;
21356;SDS011;10836;53.068;18.234;2023-02-15T21:50:29;228.30;;;82.53;;
21356;SDS011;10836;53.068;18.234;2023-02-15T21:53:33;191.07;;;74.60;;
21356;SDS011;10836;53.068;18.234;2023-02-15T21:56:02;177.97;;;66.50;;
21356;SDS011;10836;53.068;18.234;2023-02-15T21:58:32;176.23;;;65.10;;
21356;SDS011;10836;53.068;18.234;2023-02-15T22:01:01;172.87;;;64.47;;
21356;SDS011;10836;53.068;18.234;2023-02-15T22:03:33;174.73;;;66.80;;
21356;SDS011;10836;53.068;18.234;2023-02-15T22:06:03;177.53;;;66.60;;
21356;SDS011;10836;53.068;18.234;2023-02-15T22:08:31;174.20;;;67.80;;
21356;SDS011;10836;53.068;18.234;2023-02-15T22:10:58;176.47;;;66.77;;
21356;SDS011;10836;53.068;18.234;2023-02-15T22:13:27;205.07;;;80.40;;
21356;SDS011;10836;53.068;18.234;2023-02-15T22:15:55;182.63;;;71.10;;
21356;SDS011;10836;53.068;18.234;2023-02-15T22:18:28;182.97;;;69.40;;
21356;SDS011;10836;53.068;18.234;2023-02-15T22:20:59;191.90;;;68.77;;
21356;SDS011;10836;53.068;18.234;2023-02-15T22:23:28;189.40;;;71.03;;
21356;SDS011;10836;53.068;18.234;2023-02-15T22:26:01;179.17;;;66.83;;
21356;SDS011;10836;53.068;18.234;2023-02-15T22:28:32;166.13;;;64.43;;
21356;SDS011;10836;53.068;18.234;2023-02-15T22:31:08;171.10;;;68.00;;
21356;SDS011;10836;53.068;18.234;2023-02-15T22:33:38;165.17;;;64.77;;
21356;SDS011;10836;53.068;18.234;2023-02-15T22:36:05;174.03;;;63.63;;
21356;SDS011;10836;53.068;18.234;2023-02-15T22:38:42;156.27;;;59.17;;
21356;SDS011;10836;53.068;18.234;2023-02-15T22:41:09;174.70;;;65.27;;
21356;SDS011;10836;53.068;18.234;2023-02-15T22:43:41;165.43;;;62.10;;
21356;SDS011;10836;53.068;18.234;2023-02-15T22:46:13;161.53;;;62.70;;
21356;SDS011;10836;53.068;18.234;2023-02-15T22:48:42;164.33;;;61.97;;
21356;SDS011;10836;53.068;18.234;2023-02-15T22:51:11;194.57;;;75.37;;
21356;SDS011;10836;53.068;18.234;2023-02-15T22:53:42;182.80;;;68.37;;
21356;SDS011;10836;53.068;18.234;2023-02-15T22:56:16;194.57;;;74.43;;
21356;SDS011;10836;53.068;18.234;2023-02-15T22:58:45;198.43;;;74.97;;
21356;SDS011;10836;53.068;18.234;2023-02-15T23:01:21;328.63;;;115.00;;
21356;SDS011;10836;53.068;18.234;2023-02-15T23:03:50;341.23;;;118.63;;
21356;SDS011;10836;53.068;18.234;2023-02-15T23:06:17;357.97;;;121.33;;
21356;SDS011;10836;53.068;18.234;2023-02-15T23:08:44;367.93;;;118.57;;
21356;SDS011;10836;53.068;18.234;2023-02-15T23:11:11;346.00;;;115.07;;
21356;SDS011;10836;53.068;18.234;2023-02-15T23:13:38;280.83;;;98.23;;
21356;SDS011;10836;53.068;18.234;2023-02-15T23:16:06;253.80;;;89.47;;
21356;SDS011;10836;53.068;18.234;2023-02-15T23:18:39;237.33;;;85.63;;
21356;SDS011;10836;53.068;18.234;2023-02-15T23:21:27;235.63;;;86.50;;
21356;SDS011;10836;53.068;18.234;2023-02-15T23:24:11;228.87;;;82.07;;
21356;SDS011;10836;53.068;18.234;2023-02-15T23:26:49;165.70;;;65.83;;
21356;SDS011;10836;53.068;18.234;2023-02-15T23:29:17;167.10;;;63.17;;
21356;SDS011;10836;53.068;18.234;2023-02-15T23:31:49;144.63;;;54.70;;
21356;SDS011;10836;53.068;18.234;2023-02-15T23:34:23;149.43;;;56.87;;
21356;SDS011;10836;53.068;18.234;2023-02-15T23:36:54;150.77;;;58.97;;
21356;SDS011;10836;53.068;18.234;2023-02-15T23:39:23;132.67;;;52.30;;
21356;SDS011;10836;53.068;18.234;2023-02-15T23:44:53;147.63;;;55.23;;
21356;SDS011;10836;53.068;18.234;2023-02-15T23:47:26;154.67;;;60.17;;
21356;SDS011;10836;53.068;18.234;2023-02-15T23:52:44;187.90;;;67.87;;
21356;SDS011;10836;53.068;18.234;2023-02-15T23:55:12;192.73;;;68.63;;
21356;SDS011;10836;53.068;18.234;2023-02-15T23:57:40;187.17;;;67.93;;
